createdAt,value
2023-01-15T00:01:03.544Z,66.55
2023-01-15T00:03:37.217Z,66.60
2023-01-15T00:06:10.945Z,79.07
2023-01-15T00:08:45.393Z,60.65
2023-01-15T00:11:20.062Z,56.08
2023-01-15T00:13:54.606Z,67.75
2023-01-15T00:16:29.220Z,59.05
2023-01-15T00:19:04.853Z,62.73
2023-01-15T00:21:39.321Z,62.17
2023-01-15T00:27:21.090Z,58.83
2023-01-15T00:29:56.032Z,55.98
2023-01-15T00:32:30.030Z,56.80
2023-01-15T00:35:04.104Z,51.77
2023-01-15T00:37:38.389Z,58.35
2023-01-15T00:40:14.272Z,63.55
2023-01-15T00:42:54.603Z,63.00
2023-01-15T00:45:24.362Z,68.00
2023-01-15T00:47:58.462Z,56.63
2023-01-15T00:50:33.352Z,58.98
2023-01-15T00:53:07.744Z,52.93
2023-01-15T00:55:41.598Z,57.73
2023-01-15T00:58:15.328Z,50.67
2023-01-15T01:00:55.192Z,57.80
2023-01-15T01:03:30.320Z,52.78
2023-01-15T01:06:05.175Z,55.05
2023-01-15T01:08:40.478Z,64.50
2023-01-15T01:11:18.121Z,63.20
2023-01-15T01:13:52.268Z,54.75
2023-01-15T01:16:32.145Z,59.13
2023-01-15T01:19:10.539Z,53.30
2023-01-15T01:21:45.591Z,51.15
2023-01-15T01:24:23.128Z,53.98
2023-01-15T01:26:59.207Z,66.12
2023-01-15T01:29:32.871Z,67.37
2023-01-15T01:32:06.853Z,59.75
2023-01-15T01:34:41.431Z,63.60
2023-01-15T01:37:15.280Z,64.60
2023-01-15T01:39:49.155Z,61.80
2023-01-15T01:42:24.195Z,57.17
2023-01-15T01:45:23.885Z,63.45
2023-01-15T01:48:04.363Z,57.90
2023-01-15T01:50:39.644Z,54.10
2023-01-15T01:53:23.198Z,58.38
2023-01-15T01:55:58.562Z,53.70
2023-01-15T01:58:33.649Z,67.35
2023-01-15T02:01:07.802Z,56.60
2023-01-15T02:03:42.821Z,51.00
2023-01-15T02:06:17.963Z,47.75
2023-01-15T02:08:51.651Z,51.55
2023-01-15T02:11:27.006Z,55.33
2023-01-15T02:14:22.656Z,48.15
2023-01-15T02:17:12.939Z,49.88
2023-01-15T02:20:06.417Z,48.10
2023-01-15T02:22:51.352Z,52.83
2023-01-15T02:25:32.717Z,40.98
2023-01-15T02:28:17.710Z,53.13
2023-01-15T02:31:17.506Z,45.33
2023-01-15T02:34:02.382Z,51.65
2023-01-15T02:36:41.413Z,50.33
2023-01-15T02:39:18.584Z,47.27
2023-01-15T02:41:55.401Z,44.23
2023-01-15T02:44:33.049Z,55.88
2023-01-15T02:47:07.425Z,48.08
2023-01-15T02:49:42.103Z,47.08
2023-01-15T02:52:22.331Z,50.80
2023-01-15T02:55:03.410Z,45.28
2023-01-15T02:57:40.142Z,53.73
2023-01-15T03:00:16.699Z,58.63
2023-01-15T03:02:58.456Z,57.98
2023-01-15T03:05:51.533Z,48.55
2023-01-15T03:08:25.691Z,42.43
2023-01-15T03:11:09.560Z,55.52
2023-01-15T03:14:00.962Z,45.48
2023-01-15T03:16:41.096Z,42.85
2023-01-15T03:19:37.239Z,54.55
2023-01-15T03:22:21.094Z,43.17
2023-01-15T03:25:03.461Z,41.18
2023-01-15T03:27:39.271Z,47.10
2023-01-15T03:30:20.603Z,40.60
2023-01-15T03:32:57.066Z,44.65
2023-01-15T03:35:56.727Z,38.17
2023-01-15T03:38:38.336Z,42.88
2023-01-15T03:41:28.799Z,38.58
2023-01-15T03:44:51.149Z,48.58
2023-01-15T03:47:36.278Z,48.92
2023-01-15T03:50:17.564Z,38.92
2023-01-15T03:53:31.382Z,37.67
2023-01-15T03:56:16.550Z,41.20
2023-01-15T03:59:03.057Z,39.92
2023-01-15T04:01:41.388Z,40.67
2023-01-15T04:04:16.198Z,34.38
2023-01-15T04:06:51.643Z,38.08
2023-01-15T04:09:26.472Z,39.83
2023-01-15T04:12:02.939Z,44.33
2023-01-15T04:14:39.060Z,38.63
2023-01-15T04:17:14.462Z,34.43
2023-01-15T04:19:48.122Z,33.55
2023-01-15T04:22:22.665Z,37.23
2023-01-15T04:24:56.568Z,35.60
2023-01-15T04:27:30.487Z,39.13
2023-01-15T04:30:04.233Z,38.42
2023-01-15T04:32:38.655Z,35.73
2023-01-15T04:35:12.411Z,43.08
2023-01-15T04:37:47.235Z,33.65
2023-01-15T04:40:31.875Z,36.55
2023-01-15T04:45:57.147Z,34.20
2023-01-15T04:48:31.819Z,33.13
2023-01-15T04:51:06.925Z,33.30
2023-01-15T04:53:40.929Z,34.05
2023-01-15T04:56:14.804Z,32.55
2023-01-15T04:58:48.550Z,26.52
2023-01-15T05:01:22.695Z,34.25
2023-01-15T05:03:58.176Z,38.83
2023-01-15T05:06:32.371Z,35.25
2023-01-15T05:11:41.536Z,32.85
2023-01-15T05:14:15.344Z,37.45
2023-01-15T05:16:49.182Z,41.90
2023-01-15T05:19:23.561Z,33.90
2023-01-15T05:21:58.585Z,38.73
2023-01-15T05:24:32.391Z,37.60
2023-01-15T05:27:06.336Z,60.03
2023-01-15T05:29:40.084Z,37.50
2023-01-15T05:32:13.868Z,36.83
2023-01-15T05:37:20.967Z,39.98
2023-01-15T05:39:54.757Z,38.13
2023-01-15T05:42:28.726Z,34.50
2023-01-15T05:47:36.134Z,33.20
2023-01-15T05:50:11.607Z,36.60
2023-01-15T05:52:45.724Z,38.75
2023-01-15T05:55:19.610Z,30.60
2023-01-15T05:57:53.414Z,35.73
2023-01-15T06:03:01.371Z,34.40
2023-01-15T06:05:35.121Z,41.70
2023-01-15T06:08:09.070Z,35.03
2023-01-15T06:10:45.797Z,40.03
2023-01-15T06:13:19.906Z,30.68
2023-01-15T06:18:26.508Z,35.88
2023-01-15T06:23:38.292Z,49.98
2023-01-15T06:26:17.075Z,43.38
2023-01-15T06:28:51.080Z,40.38
2023-01-15T06:31:29.636Z,39.42
2023-01-15T06:34:03.433Z,45.12
2023-01-15T06:36:38.067Z,50.17
2023-01-15T06:39:11.906Z,39.20
2023-01-15T06:42:03.566Z,53.48
2023-01-15T06:44:55.321Z,43.80
2023-01-15T06:47:29.774Z,60.20
2023-01-15T06:50:03.660Z,50.98
2023-01-15T06:52:37.588Z,54.83
2023-01-15T06:55:11.965Z,44.23
2023-01-15T06:57:46.348Z,38.60
2023-01-15T07:00:20.603Z,65.25
2023-01-15T07:02:54.564Z,54.10
2023-01-15T07:08:01.433Z,40.52
2023-01-15T07:10:37.304Z,40.30
2023-01-15T07:13:15.858Z,44.88
2023-01-15T07:15:49.541Z,40.12
2023-01-15T07:21:00.194Z,52.27
2023-01-15T07:23:35.660Z,56.08
2023-01-15T07:26:10.586Z,95.12
2023-01-15T07:28:44.368Z,80.30
2023-01-15T07:31:18.892Z,83.58
2023-01-15T07:33:52.871Z,65.87
2023-01-15T07:36:27.225Z,71.05
2023-01-15T07:39:04.724Z,60.90
2023-01-15T07:41:57.119Z,70.30
2023-01-15T07:44:49.790Z,97.55
2023-01-15T07:47:44.249Z,102.60
2023-01-15T07:50:25.806Z,66.82
2023-01-15T07:52:59.525Z,81.17
2023-01-15T07:55:35.920Z,70.92
2023-01-15T07:58:09.632Z,65.30
2023-01-15T08:00:43.321Z,57.88
2023-01-15T08:03:17.102Z,64.45
2023-01-15T08:08:24.331Z,73.33
2023-01-15T08:11:20.958Z,77.97
2023-01-15T08:14:13.021Z,78.60
2023-01-15T08:16:47.013Z,66.28
2023-01-15T08:19:20.890Z,75.08
2023-01-15T08:21:54.731Z,69.62
2023-01-15T08:24:30.671Z,87.22
2023-01-15T08:27:05.279Z,61.28
2023-01-15T08:29:39.511Z,74.07
2023-01-15T08:34:46.854Z,69.70
2023-01-15T08:37:23.240Z,80.28
2023-01-15T08:39:57.249Z,76.53
2023-01-15T08:42:30.974Z,66.22
2023-01-15T08:45:05.252Z,68.35
2023-01-15T08:47:38.989Z,81.20
2023-01-15T08:50:13.558Z,67.22
2023-01-15T08:52:48.141Z,58.15
2023-01-15T08:55:24.183Z,83.15
2023-01-15T08:57:58.652Z,86.20
2023-01-15T09:00:32.328Z,76.65
2023-01-15T09:03:06.426Z,77.82
2023-01-15T09:05:41.090Z,74.05
2023-01-15T09:10:48.641Z,82.12
2023-01-15T09:13:22.354Z,67.37
2023-01-15T09:16:03.163Z,88.42
2023-01-15T09:18:39.456Z,71.07
2023-01-15T09:21:13.436Z,92.35
2023-01-15T09:23:47.909Z,93.42
2023-01-15T09:26:34.481Z,91.55
2023-01-15T09:29:09.509Z,86.45
2023-01-15T09:31:44.209Z,92.55
2023-01-15T09:34:18.160Z,86.57
2023-01-15T09:36:52.045Z,79.32
2023-01-15T09:39:26.915Z,88.22
2023-01-15T09:42:16.352Z,88.17
2023-01-15T09:45:21.361Z,106.00
2023-01-15T09:48:08.735Z,106.52
2023-01-15T09:51:05.536Z,95.87
2023-01-15T09:53:56.203Z,99.52
2023-01-15T09:56:33.776Z,90.00
2023-01-15T09:59:21.319Z,81.65
2023-01-15T10:01:55.350Z,116.85
2023-01-15T10:07:33.534Z,124.15
2023-01-15T10:10:15.728Z,117.85
2023-01-15T10:12:51.950Z,126.05
2023-01-15T10:15:35.959Z,109.32
2023-01-15T10:18:19.047Z,115.97
2023-01-15T10:21:37.053Z,122.87
2023-01-15T10:24:15.831Z,131.20
2023-01-15T10:27:00.757Z,130.60
2023-01-15T10:29:47.002Z,118.90
2023-01-15T10:33:02.121Z,113.03
2023-01-15T10:35:46.018Z,108.15
2023-01-15T10:38:48.860Z,124.35
2023-01-15T10:41:27.449Z,126.20
2023-01-15T10:44:14.433Z,128.20
2023-01-15T10:46:58.645Z,156.00
2023-01-15T10:49:35.425Z,131.05
2023-01-15T10:52:34.733Z,121.37
2023-01-15T10:55:22.506Z,132.82
2023-01-15T10:58:26.572Z,139.85
2023-01-15T11:01:16.786Z,115.47
2023-01-15T11:03:51.501Z,121.28
2023-01-15T11:06:26.489Z,144.17
2023-01-15T11:09:11.219Z,118.65
2023-01-15T11:11:59.933Z,137.43
2023-01-15T11:15:03.527Z,133.18
2023-01-15T11:18:06.014Z,126.33
2023-01-15T11:20:47.696Z,140.43
2023-01-15T11:23:23.588Z,150.40
2023-01-15T11:26:01.713Z,150.00
2023-01-15T11:28:43.558Z,113.90
2023-01-15T11:31:18.983Z,153.30
2023-01-15T11:34:05.335Z,130.75
2023-01-15T11:36:40.668Z,173.68
2023-01-15T11:39:28.658Z,131.47
2023-01-15T11:42:23.526Z,112.47
2023-01-15T11:48:14.459Z,143.57
2023-01-15T11:50:54.941Z,208.38
2023-01-15T11:53:32.938Z,220.40
2023-01-15T11:56:10.997Z,219.28
2023-01-15T11:58:54.558Z,203.45
2023-01-15T12:01:34.449Z,210.85
2023-01-15T12:04:25.283Z,145.30
2023-01-15T12:06:59.541Z,141.85
2023-01-15T12:09:55.501Z,132.18
2023-01-15T12:12:42.843Z,140.82
2023-01-15T12:15:40.617Z,117.57
2023-01-15T12:18:37.117Z,183.12
2023-01-15T12:21:38.170Z,155.35
2023-01-15T12:24:20.461Z,137.45
2023-01-15T12:27:18.439Z,128.42
2023-01-15T12:29:59.626Z,168.40
2023-01-15T12:32:43.220Z,145.12
2023-01-15T12:35:35.585Z,132.40
2023-01-15T12:38:25.799Z,125.25
2023-01-15T12:41:05.397Z,128.25
2023-01-15T12:43:56.615Z,107.30
2023-01-15T12:46:33.309Z,89.77
2023-01-15T12:49:23.119Z,106.05
2023-01-15T12:52:07.461Z,101.82
2023-01-15T12:54:46.025Z,111.40
2023-01-15T12:57:27.473Z,132.97
2023-01-15T13:00:07.615Z,102.45
2023-01-15T13:03:17.339Z,102.60
2023-01-15T13:06:01.591Z,104.50
2023-01-15T13:09:12.294Z,98.58
2023-01-15T13:11:46.259Z,99.83
2023-01-15T13:14:21.916Z,108.92
2023-01-15T13:17:06.520Z,94.05
2023-01-15T13:19:50.733Z,130.30
2023-01-15T13:22:27.941Z,150.78
2023-01-15T13:25:30.021Z,151.82
2023-01-15T13:28:19.848Z,138.77
2023-01-15T13:31:16.366Z,159.97
2023-01-15T13:33:53.886Z,129.80
2023-01-15T13:36:38.189Z,120.10
2023-01-15T13:39:19.328Z,117.67
2023-01-15T13:42:13.217Z,145.90
2023-01-15T13:44:52.911Z,148.90
2023-01-15T13:47:30.470Z,146.28
2023-01-15T13:50:08.388Z,219.75
2023-01-15T13:52:42.486Z,144.80
2023-01-15T13:55:38.315Z,169.47
2023-01-15T13:58:28.099Z,146.50
2023-01-15T14:01:24.201Z,129.20
2023-01-15T14:04:15.834Z,118.13
2023-01-15T14:06:52.360Z,118.37
2023-01-15T14:09:30.196Z,125.62
2023-01-15T14:12:25.326Z,131.32
2023-01-15T14:15:15.843Z,136.15
2023-01-15T14:18:38.156Z,112.10
2023-01-15T14:22:00.297Z,131.95
2023-01-15T14:24:46.611Z,118.37
2023-01-15T14:28:07.460Z,107.95
2023-01-15T14:31:10.356Z,171.75
2023-01-15T14:34:17.338Z,166.60
2023-01-15T14:37:08.995Z,189.07
2023-01-15T14:39:58.828Z,220.55
2023-01-15T14:42:54.289Z,335.75
2023-01-15T14:45:36.618Z,321.90
2023-01-15T14:48:34.626Z,209.32
2023-01-15T14:51:25.083Z,246.32
2023-01-15T14:54:09.096Z,229.47
2023-01-15T14:56:56.595Z,160.43
2023-01-15T14:59:50.225Z,162.62
2023-01-15T15:02:29.296Z,178.62
2023-01-15T15:05:03.848Z,207.15
2023-01-15T15:07:48.654Z,247.58
2023-01-15T15:10:30.302Z,185.95
2023-01-15T15:13:37.635Z,146.87
2023-01-15T15:16:24.391Z,196.50
2023-01-15T15:19:15.120Z,171.28
2023-01-15T15:21:49.981Z,180.90
2023-01-15T15:24:37.660Z,150.62
2023-01-15T15:27:20.675Z,145.47
2023-01-15T15:29:54.260Z,128.90
2023-01-15T15:32:27.871Z,142.95
2023-01-15T15:35:01.747Z,126.05
2023-01-15T15:37:35.698Z,119.87
2023-01-15T15:40:22.270Z,114.95
2023-01-15T15:43:21.471Z,88.33
2023-01-15T15:46:15.775Z,111.50
2023-01-15T15:48:53.412Z,94.80
2023-01-15T15:51:49.753Z,105.47
2023-01-15T15:54:31.007Z,86.60
2023-01-15T15:57:14.997Z,95.03
2023-01-15T15:59:52.091Z,113.52
2023-01-15T16:02:34.080Z,81.75
2023-01-15T16:05:26.966Z,96.82
2023-01-15T16:08:21.967Z,106.72
2023-01-15T16:10:58.972Z,119.30
2023-01-15T16:13:41.736Z,112.37
2023-01-15T16:16:20.068Z,113.17
2023-01-15T16:18:58.351Z,111.30
2023-01-15T16:21:37.643Z,115.50
2023-01-15T16:24:27.898Z,126.60
2023-01-15T16:27:15.814Z,130.35
2023-01-15T16:29:53.209Z,107.10
2023-01-15T16:32:30.391Z,78.90
2023-01-15T16:35:17.922Z,92.90
2023-01-15T16:37:56.219Z,76.17
2023-01-15T16:40:38.827Z,85.25
2023-01-15T16:43:21.028Z,76.17
2023-01-15T16:46:18.366Z,79.27
2023-01-15T16:48:52.151Z,74.55
2023-01-15T16:51:39.261Z,73.50
2023-01-15T16:54:34.796Z,73.65
2023-01-15T16:57:35.533Z,68.95
2023-01-15T17:00:13.023Z,84.13
2023-01-15T17:02:48.055Z,78.05
2023-01-15T17:05:24.991Z,93.12
2023-01-15T17:07:59.293Z,82.02
2023-01-15T17:10:33.254Z,76.20
2023-01-15T17:13:07.512Z,73.65
2023-01-15T17:15:42.900Z,83.17
2023-01-15T17:18:28.873Z,82.82
2023-01-15T17:21:03.378Z,74.75
2023-01-15T17:23:43.128Z,72.47
2023-01-15T17:26:22.722Z,89.17
2023-01-15T17:28:56.568Z,77.87
2023-01-15T17:31:34.205Z,94.65
2023-01-15T17:34:08.275Z,96.55
2023-01-15T17:36:42.036Z,98.90
2023-01-15T17:39:18.112Z,75.10
2023-01-15T17:41:52.030Z,78.28
2023-01-15T17:44:25.880Z,77.00
2023-01-15T17:46:59.747Z,84.87
2023-01-15T17:49:33.614Z,94.37
2023-01-15T17:52:10.212Z,79.67
2023-01-15T17:55:02.728Z,71.53
2023-01-15T17:57:54.452Z,73.90
2023-01-15T18:00:48.512Z,52.15
2023-01-15T18:03:41.876Z,57.53
2023-01-15T18:06:17.520Z,50.85
2023-01-15T18:08:56.822Z,51.55
2023-01-15T18:11:31.589Z,52.38
2023-01-15T18:14:06.253Z,61.08
2023-01-15T18:16:41.275Z,57.67
2023-01-15T18:19:15.185Z,63.35
2023-01-15T18:21:50.257Z,75.35
2023-01-15T18:24:24.240Z,68.87
2023-01-15T18:26:58.229Z,69.70
2023-01-15T18:29:32.557Z,53.58
2023-01-15T18:34:39.852Z,53.98
2023-01-15T18:37:13.719Z,55.20
2023-01-15T18:39:48.215Z,59.77
2023-01-15T18:42:39.927Z,78.20
2023-01-15T18:45:31.888Z,96.32
2023-01-15T18:48:05.666Z,104.83
2023-01-15T18:50:40.125Z,105.70
2023-01-15T18:53:14.447Z,94.67
2023-01-15T18:55:48.388Z,69.10
2023-01-15T18:58:22.180Z,76.12
2023-01-15T19:00:56.830Z,51.40
2023-01-15T19:06:13.280Z,65.45
2023-01-15T19:08:47.759Z,45.15
2023-01-15T19:11:22.459Z,50.28
2023-01-15T19:14:14.598Z,47.75
2023-01-15T19:17:06.779Z,58.33
2023-01-15T19:19:42.315Z,67.72
2023-01-15T19:22:33.997Z,69.90
2023-01-15T19:25:08.870Z,78.90
2023-01-15T19:27:42.771Z,77.80
2023-01-15T19:30:16.904Z,70.83
2023-01-15T19:32:50.775Z,81.92
2023-01-15T19:35:25.180Z,79.20
2023-01-15T19:40:34.483Z,76.17
2023-01-15T19:43:26.749Z,94.92
2023-01-15T19:46:18.765Z,189.50
2023-01-15T19:49:10.889Z,173.53
2023-01-15T19:52:02.264Z,168.28
2023-01-15T19:54:54.121Z,111.45
2023-01-15T19:57:27.844Z,102.62
2023-01-15T20:00:01.852Z,129.40
2023-01-15T20:02:38.806Z,125.12
2023-01-15T20:05:15.307Z,120.55
2023-01-15T20:07:49.425Z,107.05
2023-01-15T20:10:26.684Z,149.85
2023-01-15T20:13:18.289Z,171.30
2023-01-15T20:15:52.280Z,123.38
2023-01-15T20:18:25.914Z,101.18
2023-01-15T20:20:59.882Z,104.70
2023-01-15T20:26:13.000Z,90.87
2023-01-15T20:28:47.919Z,85.40
2023-01-15T20:31:21.933Z,91.70
2023-01-15T20:36:32.359Z,73.60
2023-01-15T20:39:07.123Z,56.80
2023-01-15T20:41:58.697Z,64.37
2023-01-15T20:44:51.084Z,52.88
2023-01-15T20:47:46.273Z,51.23
2023-01-15T20:50:20.997Z,56.53
2023-01-15T20:52:55.362Z,60.48
2023-01-15T20:55:45.622Z,57.40
2023-01-15T20:58:10.849Z,64.05
2023-01-15T21:00:44.701Z,64.22
2023-01-15T21:03:21.061Z,61.95
2023-01-15T21:05:58.435Z,67.17
2023-01-15T21:08:33.813Z,58.92
2023-01-15T21:11:08.121Z,75.30
2023-01-15T21:13:43.465Z,58.95
2023-01-15T21:16:17.641Z,51.75
2023-01-15T21:18:51.265Z,47.58
2023-01-15T21:21:25.078Z,50.73
2023-01-15T21:24:01.598Z,63.23
2023-01-15T21:26:37.787Z,58.87
2023-01-15T21:29:11.602Z,61.23
2023-01-15T21:31:46.058Z,63.30
2023-01-15T21:36:52.829Z,125.20
2023-01-15T21:39:26.915Z,89.37
2023-01-15T21:44:51.561Z,66.50
2023-01-15T21:47:26.506Z,101.25
2023-01-15T21:50:00.378Z,81.32
2023-01-15T21:52:34.715Z,72.12
2023-01-15T21:55:09.368Z,58.42
2023-01-15T21:57:43.681Z,62.30
2023-01-15T22:00:19.805Z,67.22
2023-01-15T22:02:55.352Z,89.95
2023-01-15T22:05:29.440Z,83.40
2023-01-15T22:08:05.154Z,80.90
2023-01-15T22:10:39.029Z,81.75
2023-01-15T22:15:45.844Z,86.63
2023-01-15T22:18:19.657Z,94.85
2023-01-15T22:21:01.985Z,76.77
2023-01-15T22:23:36.660Z,90.65
2023-01-15T22:26:19.261Z,83.07
2023-01-15T22:28:53.600Z,88.27
2023-01-15T22:31:28.927Z,156.95
2023-01-15T22:34:02.671Z,100.02
2023-01-15T22:36:37.175Z,75.20
2023-01-15T22:39:10.994Z,101.07
2023-01-15T22:42:03.386Z,74.75
2023-01-15T22:44:37.250Z,88.90
2023-01-15T22:47:11.018Z,120.85
2023-01-15T22:49:45.036Z,116.08
2023-01-15T22:52:19.070Z,95.30
2023-01-15T22:54:52.885Z,98.92
2023-01-15T22:57:26.629Z,86.32
2023-01-15T23:00:00.660Z,76.25
2023-01-15T23:02:52.544Z,70.20
2023-01-15T23:05:27.089Z,78.42
2023-01-15T23:08:00.952Z,92.25
2023-01-15T23:13:07.578Z,77.47
2023-01-15T23:15:41.626Z,95.12
2023-01-15T23:18:15.472Z,93.85
2023-01-15T23:20:49.206Z,89.40
2023-01-15T23:25:55.985Z,83.72
2023-01-15T23:28:29.761Z,88.27
2023-01-15T23:31:04.119Z,86.85
2023-01-15T23:33:38.664Z,65.30
2023-01-15T23:36:13.574Z,66.77
2023-01-15T23:38:47.623Z,72.60
2023-01-15T23:41:42.174Z,78.22
2023-01-15T23:44:39.499Z,63.20
2023-01-15T23:47:13.165Z,68.70
2023-01-15T23:49:46.793Z,75.97
2023-01-15T23:52:21.286Z,57.67
2023-01-15T23:54:55.942Z,58.10
2023-01-15T23:57:29.625Z,56.83
